< < Back
Terminal Aerodrome Forecast


Current Version              Previous Versions:   1  2  3  4  5  6  7  8  9  

Terminal Aerodrome Forecast

794
FTUS42 KCAE 240500
TAFCAE
TAF
KCAE 240539Z 2406/2506 00000KT P6SM SCT200
     FM241500 VRB04KT P6SM BKN200=

Latest METAR

418
SAUS80 KWBC 240700 RRA
MTRCAE
METAR KCAE 240656Z 00000KT 10SM CLR 08/06 A3002 RMK AO2 SLP166
T00830061


USA.gov is the U.S. government's official web portal to all federal, state and local government web resources and services.